Time;durP1;ratioP1;P1;durP2;ratioP2;P2;SDS_P1;SDS_P2;PMS_P1;PMS_P2;Temp;Humidity;BMP_temperature;BMP_pressure;BME280_temperature;BME280_humidity;BME280_pressure;Samples;Min_cycle;Max_cycle;Signal;HPM_P1;HPM_P2
2023/12/13 00:01:26;;;;;;;76.50;41.77;;;7.40;99.90;;;;;;10374697;28;20234;-81
2023/12/13 00:06:30;;;;;;;72.17;39.47;;;7.50;99.90;;;;;;10373221;28;20681;-81
2023/12/13 00:11:32;;;;;;;68.07;40.13;;;7.40;99.90;;;;;;10371864;28;20251;-81
2023/12/13 00:16:38;;;;;;;69.77;39.57;;;7.30;99.90;;;;;;10377232;28;20231;-81
2023/12/13 00:21:41;;;;;;;68.70;38.90;;;7.70;99.90;;;;;;10378911;28;20289;-81
2023/12/13 00:26:43;;;;;;;62.80;37.30;;;7.70;99.90;;;;;;10354078;28;20266;-81
2023/12/13 00:31:46;;;;;;;60.00;34.03;;;7.90;99.90;;;;;;10367169;28;20309;-81
2023/12/13 00:36:48;;;;;;;54.97;31.90;;;7.70;99.90;;;;;;10371970;28;20780;-81
2023/12/13 00:41:51;;;;;;;57.60;34.67;;;7.50;99.90;;;;;;10371664;28;20240;-81
2023/12/13 00:47:03;;;;;;;57.40;34.03;;;7.50;99.90;;;;;;10372003;28;20317;-81
2023/12/13 00:52:31;;;;;;;55.27;34.20;;;7.90;99.90;;;;;;10372911;28;20330;-81
2023/12/13 00:57:34;;;;;;;55.00;31.43;;;7.70;99.90;;;;;;10372417;28;20278;-81
2023/12/13 01:02:37;;;;;;;53.13;33.00;;;8.00;99.90;;;;;;10371230;28;20713;-81
2023/12/13 01:07:39;;;;;;;54.17;32.87;;;8.10;99.90;;;;;;10376453;28;20776;-81
2023/12/13 01:12:42;;;;;;;50.10;29.57;;;7.90;99.90;;;;;;10412898;28;20321;-81
2023/12/13 01:17:45;;;;;;;42.43;28.27;;;8.10;99.90;;;;;;10412715;28;20289;-81
2023/12/13 01:22:47;;;;;;;47.80;28.87;;;7.80;99.90;;;;;;10411676;28;20247;-81
2023/12/13 01:27:50;;;;;;;49.80;30.00;;;7.40;99.90;;;;;;10411434;28;20266;-81
2023/12/13 01:32:53;;;;;;;53.27;30.47;;;7.40;99.90;;;;;;10360381;28;20260;-81
2023/12/13 01:37:56;;;;;;;53.50;30.50;;;7.60;99.90;;;;;;10371717;28;20234;-81
2023/12/13 01:42:58;;;;;;;45.57;28.97;;;7.80;99.90;;;;;;10411641;28;20231;-81
2023/12/13 01:48:01;;;;;;;44.07;27.77;;;7.50;99.90;;;;;;10404949;28;20286;-81
2023/12/13 01:53:03;;;;;;;45.47;27.17;;;7.70;99.90;;;;;;10370548;28;20274;-81
2023/12/13 01:58:07;;;;;;;44.40;27.63;;;7.80;99.90;;;;;;10386735;28;20279;-81
2023/12/13 02:03:11;;;;;;;43.87;27.07;;;7.70;99.90;;;;;;10394932;28;21024;-80
2023/12/13 02:08:14;;;;;;;49.10;30.03;;;8.20;99.90;;;;;;10368219;28;20239;-81
2023/12/13 02:13:16;;;;;;;39.87;24.13;;;7.90;99.90;;;;;;10387724;28;20258;-81
2023/12/13 02:18:19;;;;;;;44.10;24.90;;;7.90;99.90;;;;;;10389062;28;20689;-81
2023/12/13 02:23:22;;;;;;;35.50;22.33;;;7.80;99.90;;;;;;10327978;28;20279;-81
2023/12/13 02:28:28;;;;;;;34.93;24.03;;;7.90;99.90;;;;;;10329597;28;20233;-81
2023/12/13 02:33:33;;;;;;;41.80;25.63;;;7.80;99.90;;;;;;10390452;28;20247;-81
2023/12/13 02:38:36;;;;;;;37.83;22.60;;;7.80;99.90;;;;;;10408593;28;20242;-81
2023/12/13 02:43:38;;;;;;;33.73;21.53;;;7.90;99.90;;;;;;10387149;28;20238;-81
2023/12/13 02:48:41;;;;;;;38.13;22.77;;;7.50;99.90;;;;;;10377198;28;20267;-81
2023/12/13 02:53:44;;;;;;;37.13;23.33;;;7.50;99.90;;;;;;10379778;28;20247;-81
2023/12/13 02:58:47;;;;;;;40.40;24.67;;;7.90;99.90;;;;;;10368541;28;20305;-81
2023/12/13 03:03:49;;;;;;;34.70;21.60;;;7.90;99.90;;;;;;10380902;28;20289;-81
2023/12/13 03:08:51;;;;;;;41.17;24.47;;;8.20;99.90;;;;;;10393425;28;20288;-81
2023/12/13 03:13:54;;;;;;;37.87;22.40;;;8.20;99.90;;;;;;10407871;28;20258;-81
2023/12/13 03:18:56;;;;;;;41.63;22.73;;;8.60;99.90;;;;;;10408912;28;20234;-81
2023/12/13 03:23:59;;;;;;;45.47;25.70;;;7.90;99.90;;;;;;10406309;28;20239;-81
2023/12/13 03:29:02;;;;;;;40.00;23.67;;;8.10;99.90;;;;;;10408996;28;20303;-81
2023/12/13 03:34:05;;;;;;;40.23;24.63;;;7.80;99.90;;;;;;10391970;28;20259;-80
2023/12/13 03:39:07;;;;;;;40.97;23.20;;;8.00;99.90;;;;;;10408006;28;20228;-80
2023/12/13 03:44:10;;;;;;;40.43;22.00;;;7.90;99.90;;;;;;10408086;28;20296;-81
2023/12/13 03:49:13;;;;;;;34.03;21.73;;;7.60;99.90;;;;;;10407412;28;20259;-81
2023/12/13 03:54:16;;;;;;;32.80;19.97;;;7.60;99.90;;;;;;10407668;28;20284;-81
2023/12/13 03:59:18;;;;;;;35.50;21.40;;;7.80;99.90;;;;;;10372540;28;20655;-81
2023/12/13 04:04:21;;;;;;;43.33;25.57;;;7.70;99.90;;;;;;10365760;28;20659;-81
2023/12/13 04:09:24;;;;;;;33.80;21.63;;;7.70;99.90;;;;;;10401147;28;20243;-81
2023/12/13 04:14:26;;;;;;;40.07;20.90;;;7.70;99.90;;;;;;10405736;28;20261;-81
2023/12/13 04:19:28;;;;;;;33.97;19.00;;;8.10;99.90;;;;;;10365130;28;20621;-81
2023/12/13 04:24:31;;;;;;;36.13;20.97;;;8.40;99.90;;;;;;10365552;28;20677;-81
2023/12/13 04:29:34;;;;;;;31.33;19.97;;;8.00;99.90;;;;;;10402408;28;20285;-80
2023/12/13 04:34:36;;;;;;;32.90;19.77;;;8.30;99.90;;;;;;10374273;28;20255;-80
2023/12/13 04:39:39;;;;;;;35.37;21.50;;;8.40;99.90;;;;;;10373396;28;20242;-80
2023/12/13 04:44:41;;;;;;;29.67;18.53;;;8.10;99.90;;;;;;10410119;28;20602;-81
2023/12/13 04:49:43;;;;;;;33.73;19.50;;;8.30;99.90;;;;;;10410701;28;20289;-81
2023/12/13 04:54:46;;;;;;;32.97;19.53;;;8.10;99.90;;;;;;10412677;28;20307;-81
2023/12/13 04:59:48;;;;;;;29.43;18.93;;;8.10;99.90;;;;;;10413844;28;20312;-81
2023/12/13 05:04:51;;;;;;;25.40;17.23;;;8.20;99.90;;;;;;10413500;28;20281;-81
2023/12/13 05:09:55;;;;;;;29.00;17.83;;;8.40;99.90;;;;;;10403740;28;20709;-81
2023/12/13 05:14:57;;;;;;;31.30;18.53;;;8.60;99.90;;;;;;10371046;28;20265;-81
2023/12/13 05:20:00;;;;;;;30.50;17.60;;;8.50;99.90;;;;;;10355767;28;20241;-81
2023/12/13 05:25:03;;;;;;;31.83;18.27;;;8.60;99.90;;;;;;10386150;28;20296;-81
2023/12/13 05:30:06;;;;;;;30.40;17.13;;;8.20;99.90;;;;;;10411602;28;20285;-81
2023/12/13 05:35:09;;;;;;;28.00;16.97;;;8.60;99.90;;;;;;10410137;28;20385;-81
2023/12/13 05:40:12;;;;;;;30.17;18.50;;;8.80;99.90;;;;;;10330675;28;20283;-81
2023/12/13 05:45:15;;;;;;;31.63;18.97;;;8.40;99.90;;;;;;10357061;28;20259;-81
2023/12/13 05:50:17;;;;;;;28.40;17.43;;;8.40;99.90;;;;;;10392484;28;20621;-80
2023/12/13 05:55:20;;;;;;;24.10;15.73;;;8.40;99.90;;;;;;10407679;28;20304;-81
2023/12/13 06:00:23;;;;;;;36.83;20.90;;;8.30;99.90;;;;;;10377378;28;20227;-81
2023/12/13 06:05:25;;;;;;;30.17;18.47;;;8.10;99.90;;;;;;10407058;28;20277;-81
2023/12/13 06:10:28;;;;;;;35.57;20.80;;;8.30;99.90;;;;;;10369472;28;20236;-81
2023/12/13 06:15:32;;;;;;;26.73;16.00;;;8.40;99.90;;;;;;10368826;28;20649;-81
2023/12/13 06:20:34;;;;;;;30.67;18.90;;;8.40;99.90;;;;;;10333794;28;20232;-81
2023/12/13 06:25:37;;;;;;;28.63;17.87;;;8.90;99.90;;;;;;10328539;28;20329;-81
2023/12/13 06:30:40;;;;;;;28.63;17.67;;;8.70;99.90;;;;;;10346464;28;20262;-81
2023/12/13 06:35:42;;;;;;;22.63;15.47;;;8.90;99.90;;;;;;10403441;28;20310;-81
2023/12/13 06:40:54;;;;;;;29.20;17.77;;;8.80;99.90;;;;;;10402857;28;20334;-80
2023/12/13 06:45:56;;;;;;;31.97;20.00;;;8.90;99.90;;;;;;10403616;28;20254;-81
2023/12/13 06:50:59;;;;;;;31.20;18.20;;;8.60;99.90;;;;;;10401995;28;20223;-81
2023/12/13 06:56:01;;;;;;;37.53;20.87;;;8.40;99.90;;;;;;10401821;28;20316;-81
2023/12/13 07:01:04;;;;;;;37.70;23.50;;;8.40;99.90;;;;;;10401246;28;20243;-81
2023/12/13 07:06:07;;;;;;;33.37;22.30;;;8.50;99.90;;;;;;10393297;28;20285;-81
2023/12/13 07:11:09;;;;;;;28.67;19.77;;;8.50;99.90;;;;;;10400733;28;20276;-81
2023/12/13 07:16:12;;;;;;;42.67;26.63;;;8.30;99.90;;;;;;10397888;28;20725;-81
2023/12/13 07:21:14;;;;;;;24.07;13.53;;;7.50;99.90;;;;;;10397097;28;20227;-81
2023/12/13 07:26:17;;;;;;;42.80;20.20;;;8.00;99.90;;;;;;10398667;28;20283;-81
2023/12/13 07:31:20;;;;;;;38.50;19.17;;;8.50;99.90;;;;;;10407890;28;20241;-81
2023/12/13 07:36:23;;;;;;;37.73;21.30;;;8.60;99.90;;;;;;10408119;28;20261;-81
2023/12/13 07:41:25;;;;;;;39.57;23.17;;;8.60;99.90;;;;;;10372924;28;20674;-81
2023/12/13 07:46:29;;;;;;;36.50;21.37;;;9.00;99.90;;;;;;10325810;28;20261;-81
2023/12/13 07:51:32;;;;;;;31.27;17.63;;;8.90;99.90;;;;;;10363526;28;20235;-81
2023/12/13 07:56:35;;;;;;;35.53;21.17;;;8.80;99.90;;;;;;10396630;28;20266;-81
2023/12/13 08:01:38;;;;;;;32.03;18.63;;;9.00;99.90;;;;;;10382477;28;20754;-81
2023/12/13 08:06:41;;;;;;;41.20;22.57;;;9.10;99.90;;;;;;10394079;28;20239;-81
2023/12/13 08:11:44;;;;;;;38.70;24.33;;;9.20;99.90;;;;;;10414688;28;20229;-81
2023/12/13 08:16:47;;;;;;;27.43;16.83;;;8.90;99.90;;;;;;10411025;28;20665;-81
2023/12/13 08:21:51;;;;;;;54.30;31.03;;;8.90;99.90;;;;;;10390282;28;20222;-81
2023/12/13 08:26:54;;;;;;;50.93;29.47;;;8.90;99.90;;;;;;10414167;28;20295;-81
2023/12/13 08:31:56;;;;;;;43.33;25.43;;;8.80;99.90;;;;;;10408665;28;20230;-81
2023/12/13 08:37:00;;;;;;;38.33;22.87;;;9.00;99.90;;;;;;10412319;28;20685;-81
2023/12/13 08:42:06;;;;;;;25.40;14.57;;;8.70;99.90;;;;;;10411889;28;20294;-81
2023/12/13 08:47:08;;;;;;;38.93;23.27;;;8.70;99.90;;;;;;10377617;28;20701;-81
2023/12/13 08:52:11;;;;;;;38.17;21.50;;;8.30;99.90;;;;;;10338218;28;20740;-81
2023/12/13 08:57:14;;;;;;;42.97;24.87;;;8.40;99.90;;;;;;10332886;28;20622;-81
2023/12/13 09:02:16;;;;;;;47.63;29.20;;;8.40;99.90;;;;;;10403075;28;20273;-81
2023/12/13 09:07:19;;;;;;;42.23;26.07;;;8.80;99.90;;;;;;10412236;28;20246;-81
2023/12/13 09:12:21;;;;;;;22.73;13.57;;;8.50;99.90;;;;;;10412414;28;20246;-81
2023/12/13 09:17:24;;;;;;;24.87;15.70;;;8.80;99.90;;;;;;10382807;28;20718;-81
2023/12/13 09:22:26;;;;;;;41.53;23.30;;;9.40;99.90;;;;;;10370983;28;20873;-81
2023/12/13 09:27:29;;;;;;;34.83;20.57;;;9.00;99.90;;;;;;10342064;28;20771;-81
2023/12/13 09:32:33;;;;;;;39.73;23.77;;;9.30;99.90;;;;;;10382216;28;20293;-81
2023/12/13 09:37:35;;;;;;;38.33;21.27;;;9.00;99.90;;;;;;10350006;28;20314;-81
2023/12/13 09:42:42;;;;;;;28.27;16.70;;;9.20;99.90;;;;;;10340677;28;20234;-81
2023/12/13 09:47:45;;;;;;;32.13;20.93;;;9.10;99.90;;;;;;10330541;28;20664;-81
2023/12/13 09:52:49;;;;;;;39.73;21.67;;;9.20;99.90;;;;;;10346838;28;20350;-81
2023/12/13 09:57:52;;;;;;;38.37;19.97;;;9.20;99.90;;;;;;10356286;28;21009;-80
2023/12/13 10:02:54;;;;;;;39.13;24.27;;;9.20;99.90;;;;;;10350010;28;20663;-80
2023/12/13 10:08:01;;;;;;;44.13;25.57;;;9.10;99.90;;;;;;10347363;28;20240;-80
2023/12/13 10:13:06;;;;;;;32.60;20.67;;;9.10;99.90;;;;;;10347259;28;20680;-81
2023/12/13 10:18:09;;;;;;;39.20;22.77;;;8.90;99.90;;;;;;10391845;28;20273;-80
2023/12/13 10:23:12;;;;;;;32.13;17.93;;;9.00;99.90;;;;;;10364222;28;20648;-80
2023/12/13 10:28:14;;;;;;;48.23;29.17;;;9.10;99.90;;;;;;10393594;28;20293;-80
2023/12/13 10:33:17;;;;;;;21.37;13.57;;;9.20;99.90;;;;;;10369499;28;20612;-79
2023/12/13 10:38:25;;;;;;;46.03;27.37;;;9.20;99.90;;;;;;10373557;28;20286;-80
2023/12/13 10:43:32;;;;;;;41.30;22.00;;;8.90;99.90;;;;;;10016771;28;9999628;-80
2023/12/13 10:48:37;;;;;;;36.73;22.73;;;8.90;99.90;;;;;;10008515;28;10000463;-80
2023/12/13 10:53:42;;;;;;;30.17;15.97;;;8.80;99.90;;;;;;10381164;28;20290;-81
2023/12/13 10:58:45;;;;;;;45.30;26.47;;;8.70;99.90;;;;;;10376441;28;20418;-80
2023/12/13 11:04:01;;;;;;;43.57;23.97;;;8.50;99.90;;;;;;10325285;28;20237;-80
2023/12/13 11:09:23;;;;;;;38.03;25.20;;;8.80;99.90;;;;;;10387920;28;20293;-80
2023/12/13 11:14:26;;;;;;;50.30;31.23;;;8.80;99.90;;;;;;10364268;28;20314;-80
2023/12/13 11:19:29;;;;;;;38.83;24.90;;;8.60;99.90;;;;;;10365804;28;20234;-80
2023/12/13 11:24:36;;;;;;;37.97;22.37;;;8.90;99.90;;;;;;10370436;28;20243;-81
2023/12/13 11:29:44;;;;;;;45.17;28.97;;;9.40;99.90;;;;;;10379312;28;20269;-80
2023/12/13 11:34:50;;;;;;;22.43;14.47;;;9.30;99.90;;;;;;10401885;28;20259;-80
2023/12/13 11:39:53;;;;;;;40.13;23.87;;;9.50;99.90;;;;;;10404623;28;20227;-80
2023/12/13 11:44:56;;;;;;;39.07;22.30;;;9.40;99.90;;;;;;10409839;28;20250;-81
2023/12/13 11:49:58;;;;;;;37.10;22.17;;;9.10;99.90;;;;;;10373792;28;20325;-80
2023/12/13 11:55:02;;;;;;;24.30;14.37;;;9.20;99.90;;;;;;10399841;28;20258;-80
2023/12/13 12:00:06;;;;;;;27.60;15.37;;;9.60;99.90;;;;;;10372365;28;20243;-80
2023/12/13 12:05:14;;;;;;;44.40;26.77;;;9.60;99.90;;;;;;10374441;28;20289;-80
2023/12/13 12:10:19;;;;;;;37.13;22.27;;;9.30;99.90;;;;;;10371727;28;20977;-80
2023/12/13 12:15:22;;;;;;;23.33;14.93;;;9.50;99.90;;;;;;10370525;28;20252;-80
2023/12/13 12:20:26;;;;;;;18.50;12.50;;;9.70;99.90;;;;;;10369942;28;20651;-80
2023/12/13 12:25:32;;;;;;;29.63;16.47;;;9.50;99.90;;;;;;10362669;28;20232;-81
2023/12/13 12:30:34;;;;;;;26.77;15.37;;;9.80;99.90;;;;;;10385144;28;20330;-80
2023/12/13 12:35:37;;;;;;;28.60;17.63;;;9.80;99.90;;;;;;10330462;28;20716;-80
2023/12/13 12:40:39;;;;;;;52.20;30.27;;;9.30;99.90;;;;;;10370197;28;20652;-80
2023/12/13 12:45:42;;;;;;;41.57;22.57;;;8.80;99.90;;;;;;10371768;28;20274;-81
2023/12/13 12:50:45;;;;;;;57.90;31.23;;;8.70;99.90;;;;;;10376086;28;20200;-81
2023/12/13 12:55:47;;;;;;;44.03;24.60;;;8.50;99.90;;;;;;10380562;28;20232;-80
2023/12/13 13:00:51;;;;;;;31.93;20.77;;;8.40;99.90;;;;;;10352988;28;20559;-84
2023/12/13 13:05:53;;;;;;;91.77;55.97;;;8.40;99.90;;;;;;10335206;28;20283;-80
2023/12/13 13:10:56;;;;;;;26.83;16.77;;;8.60;99.90;;;;;;10331729;28;20636;-80
2023/12/13 13:15:59;;;;;;;40.77;27.57;;;8.50;99.90;;;;;;10359463;28;20873;-80
2023/12/13 13:21:02;;;;;;;49.33;25.97;;;8.90;99.90;;;;;;10412513;28;20231;-80
2023/12/13 13:26:06;;;;;;;44.53;22.77;;;8.80;99.90;;;;;;10403430;28;20313;-81
2023/12/13 13:31:11;;;;;;;54.67;31.00;;;9.00;99.90;;;;;;10398853;28;20281;-79
2023/12/13 13:36:13;;;;;;;26.77;16.30;;;8.60;99.90;;;;;;10395246;28;20290;-80
2023/12/13 13:41:16;;;;;;;51.83;29.63;;;8.90;99.90;;;;;;10395679;28;20231;-81
2023/12/13 13:46:19;;;;;;;58.77;37.93;;;9.00;99.90;;;;;;10412608;28;20725;-81
2023/12/13 13:51:26;;;;;;;62.50;39.97;;;8.50;99.90;;;;;;10412064;28;20243;-81
2023/12/13 13:56:29;;;;;;;40.83;22.87;;;8.80;99.90;;;;;;10352216;28;20256;-79
2023/12/13 14:01:39;;;;;;;39.43;24.80;;;8.90;99.90;;;;;;10369843;28;20270;-80
2023/12/13 14:06:42;;;;;;;24.50;15.30;;;8.60;99.90;;;;;;10408259;28;20239;-80
2023/12/13 14:11:45;;;;;;;42.23;24.87;;;8.50;99.90;;;;;;10392809;28;20238;-80
2023/12/13 14:16:47;;;;;;;43.57;26.90;;;8.40;99.90;;;;;;10411349;28;20279;-80
2023/12/13 14:21:50;;;;;;;56.90;34.80;;;8.10;99.90;;;;;;10411020;28;20625;-80
2023/12/13 14:26:52;;;;;;;33.77;21.70;;;8.10;99.90;;;;;;10393608;28;20235;-80
2023/12/13 14:31:55;;;;;;;45.33;23.67;;;8.20;99.90;;;;;;10405525;28;20257;-80
2023/12/13 14:36:57;;;;;;;61.77;37.10;;;8.30;99.90;;;;;;10391633;28;20256;-81
2023/12/13 14:42:00;;;;;;;48.53;28.77;;;8.40;99.90;;;;;;10328919;28;20247;-81
2023/12/13 14:47:03;;;;;;;49.30;28.73;;;8.50;99.90;;;;;;10404055;28;20806;-81
2023/12/13 14:52:06;;;;;;;52.03;31.57;;;8.30;99.90;;;;;;10382470;28;20204;-81
2023/12/13 14:57:09;;;;;;;34.47;19.87;;;8.40;99.90;;;;;;10332498;28;20229;-81
2023/12/13 15:02:12;;;;;;;25.30;16.03;;;8.60;99.90;;;;;;10402749;28;20202;-80
2023/12/13 15:07:14;;;;;;;36.10;21.80;;;8.60;99.90;;;;;;10413175;28;20199;-80
2023/12/13 15:12:17;;;;;;;36.73;23.10;;;8.80;99.90;;;;;;10416561;28;20215;-80
2023/12/13 15:17:20;;;;;;;38.53;22.67;;;8.50;99.90;;;;;;10414949;28;20227;-81
2023/12/13 15:22:23;;;;;;;28.57;18.70;;;9.00;99.90;;;;;;10381815;28;20219;-81
2023/12/13 15:27:26;;;;;;;44.87;23.40;;;8.80;99.90;;;;;;10427820;28;20245;-80
2023/12/13 15:32:29;;;;;;;33.80;19.83;;;8.60;99.90;;;;;;10455773;28;20623;-82
2023/12/13 15:37:31;;;;;;;27.43;16.33;;;8.80;99.90;;;;;;10454239;28;20223;-82
2023/12/13 15:42:34;;;;;;;30.90;20.20;;;9.30;99.90;;;;;;10453907;28;20234;-80
2023/12/13 15:47:37;;;;;;;40.30;24.13;;;9.00;99.90;;;;;;10402988;28;20231;-78
2023/12/13 15:52:42;;;;;;;44.27;26.80;;;8.70;99.90;;;;;;10405312;28;20254;-81
2023/12/13 15:57:52;;;;;;;38.13;24.67;;;8.50;99.90;;;;;;10419441;28;20216;-79
2023/12/13 16:02:55;;;;;;;20.50;13.93;;;9.50;99.90;;;;;;10387190;28;20617;-80
2023/12/13 16:07:58;;;;;;;33.23;18.33;;;9.50;99.90;;;;;;10397512;28;20612;-80
2023/12/13 16:13:00;;;;;;;17.80;10.57;;;9.10;99.90;;;;;;10375537;28;20213;-80
2023/12/13 16:18:03;;;;;;;13.73;8.67;;;9.50;99.90;;;;;;10400459;28;20219;-80
2023/12/13 16:23:06;;;;;;;45.80;28.67;;;9.50;99.90;;;;;;10402805;28;20204;-79
2023/12/13 16:28:09;;;;;;;30.83;19.23;;;9.20;99.90;;;;;;10411932;28;20584;-80
2023/12/13 16:33:12;;;;;;;142.10;77.30;;;9.30;99.90;;;;;;10420835;28;20206;-81
2023/12/13 16:38:17;;;;;;;23.63;15.83;;;9.20;99.90;;;;;;10359223;28;20224;-80
2023/12/13 16:43:19;;;;;;;28.87;18.47;;;9.20;99.90;;;;;;10338053;28;20230;-81
2023/12/13 16:48:21;;;;;;;39.50;22.43;;;8.70;99.90;;;;;;10340411;28;20291;-79
2023/12/13 16:53:24;;;;;;;31.37;18.70;;;8.80;99.90;;;;;;10345779;28;20579;-79
2023/12/13 16:58:26;;;;;;;31.70;20.90;;;8.70;99.90;;;;;;10336112;28;20279;-80
2023/12/13 17:03:29;;;;;;;17.97;10.73;;;8.90;99.90;;;;;;10376831;28;20200;-79
2023/12/13 17:08:32;;;;;;;22.97;13.80;;;9.30;99.90;;;;;;10335941;28;20212;-80
2023/12/13 17:13:35;;;;;;;24.77;14.00;;;9.40;99.90;;;;;;10348533;28;20254;-79
2023/12/13 17:18:37;;;;;;;23.60;12.80;;;9.50;99.90;;;;;;10392289;28;20726;-79
2023/12/13 17:23:40;;;;;;;28.27;16.67;;;9.80;99.90;;;;;;10389775;28;20281;-80
2023/12/13 17:29:29;;;;;;;21.50;11.63;;;10.00;99.90;;;;;;10387778;28;20661;-79
2023/12/13 17:34:39;;;;;;;18.83;9.77;;;10.20;99.90;;;;;;10372074;28;20263;-80
2023/12/13 17:39:41;;;;;;;36.70;21.43;;;10.40;99.90;;;;;;10370444;28;20275;-80
2023/12/13 17:44:44;;;;;;;32.83;19.13;;;10.10;99.90;;;;;;10354319;28;20225;-79
2023/12/13 17:49:46;;;;;;;49.00;25.57;;;9.90;99.90;;;;;;10342153;28;20260;-80
2023/12/13 17:54:49;;;;;;;37.27;22.63;;;9.50;99.90;;;;;;10360651;28;20263;-81
2023/12/13 17:59:52;;;;;;;20.00;11.80;;;9.50;99.90;;;;;;10359644;28;20817;-79
2023/12/13 18:04:55;;;;;;;50.73;28.13;;;9.50;99.90;;;;;;10326386;28;20207;-79
2023/12/13 18:09:58;;;;;;;36.87;21.90;;;9.20;99.90;;;;;;10346056;28;20672;-80
2023/12/13 18:15:02;;;;;;;33.77;20.37;;;9.40;99.90;;;;;;10398320;28;20622;-80
2023/12/13 18:20:05;;;;;;;38.40;21.30;;;9.50;99.90;;;;;;10377162;28;20749;-80
2023/12/13 18:25:08;;;;;;;29.43;15.63;;;8.90;99.90;;;;;;10017540;28;10000228;-80
2023/12/13 18:30:11;;;;;;;40.83;21.93;;;9.30;99.90;;;;;;10407390;28;20672;-81
2023/12/13 18:35:14;;;;;;;45.47;25.43;;;9.00;99.90;;;;;;10410312;28;20199;-80
2023/12/13 18:40:17;;;;;;;44.20;26.60;;;9.60;99.90;;;;;;10409467;28;20269;-81
2023/12/13 18:45:20;;;;;;;34.80;19.17;;;9.30;99.90;;;;;;10411466;28;20332;-81
2023/12/13 18:50:22;;;;;;;43.37;25.33;;;9.00;99.90;;;;;;10410642;28;20269;-82
2023/12/13 18:55:25;;;;;;;42.77;21.50;;;9.00;99.90;;;;;;10409899;28;20278;-80
2023/12/13 19:00:29;;;;;;;44.87;26.47;;;9.20;99.90;;;;;;10409384;28;20782;-80
2023/12/13 19:05:31;;;;;;;40.27;20.23;;;8.70;99.90;;;;;;10409001;28;20304;-81
2023/12/13 19:10:34;;;;;;;43.67;24.27;;;9.10;99.90;;;;;;10409222;28;20635;-81
2023/12/13 19:15:37;;;;;;;36.17;20.70;;;9.10;99.90;;;;;;10391650;28;20235;-82
2023/12/13 19:20:40;;;;;;;43.63;22.80;;;9.20;99.90;;;;;;10408649;28;20220;-81
2023/12/13 19:25:43;;;;;;;43.10;23.67;;;9.10;99.90;;;;;;10372257;28;20277;-81
2023/12/13 19:30:46;;;;;;;41.70;23.47;;;9.10;99.90;;;;;;10366624;28;20322;-82
2023/12/13 19:35:48;;;;;;;51.60;28.27;;;9.00;99.90;;;;;;10388166;28;20231;-81
2023/12/13 19:40:51;;;;;;;57.17;31.07;;;9.10;99.90;;;;;;10406990;28;20746;-82
2023/12/13 19:45:53;;;;;;;39.00;21.70;;;9.20;99.90;;;;;;10405536;28;20270;-81
2023/12/13 19:50:56;;;;;;;42.37;22.90;;;9.00;99.90;;;;;;10407401;28;20239;-81
2023/12/13 19:55:58;;;;;;;46.73;24.63;;;8.90;99.90;;;;;;10406483;28;20266;-81
2023/12/13 20:01:01;;;;;;;37.37;20.57;;;9.10;99.90;;;;;;10406871;28;20227;-81
2023/12/13 20:06:21;;;;;;;48.87;25.93;;;9.00;99.90;;;;;;10383704;28;20231;-80
2023/12/13 20:11:23;;;;;;;238.43;122.27;;;8.80;99.90;;;;;;10387413;28;20290;-79
2023/12/13 20:16:26;;;;;;;80.17;40.00;;;9.00;99.90;;;;;;10401695;28;20258;-79
2023/12/13 20:21:30;;;;;;;99.20;49.03;;;9.00;99.90;;;;;;10369786;28;20321;-79
2023/12/13 20:26:35;;;;;;;89.57;44.33;;;8.80;99.90;;;;;;10370539;28;20248;-78
2023/12/13 20:31:38;;;;;;;67.03;34.03;;;8.80;99.90;;;;;;10372999;28;20236;-79
2023/12/13 20:36:40;;;;;;;91.10;44.17;;;8.50;99.90;;;;;;10373285;28;20248;-79
2023/12/13 20:41:43;;;;;;;70.00;37.20;;;8.50;99.90;;;;;;10367752;28;20236;-79
2023/12/13 20:46:47;;;;;;;75.07;39.07;;;8.50;99.90;;;;;;10366650;28;20719;-78
2023/12/13 20:51:49;;;;;;;76.27;39.50;;;8.40;99.90;;;;;;10027598;28;10000376;-78
2023/12/13 20:56:52;;;;;;;63.00;31.73;;;8.50;99.90;;;;;;10367100;28;20256;-79
2023/12/13 21:01:54;;;;;;;76.97;40.43;;;8.60;99.90;;;;;;10369761;28;20236;-79
2023/12/13 21:06:56;;;;;;;79.03;40.83;;;8.40;99.90;;;;;;10369989;28;20247;-79
2023/12/13 21:11:59;;;;;;;83.63;40.33;;;7.80;99.90;;;;;;10370678;28;20235;-79
2023/12/13 21:17:01;;;;;;;66.37;35.77;;;8.30;99.90;;;;;;10368098;28;20268;-78
2023/12/13 21:22:04;;;;;;;69.83;37.53;;;8.00;99.90;;;;;;10399666;28;20250;-78
2023/12/13 21:27:07;;;;;;;67.23;36.97;;;7.80;99.90;;;;;;10381108;28;20280;-78
2023/12/13 21:32:09;;;;;;;74.00;38.90;;;7.90;99.90;;;;;;10407808;28;20305;-79
2023/12/13 21:37:12;;;;;;;66.20;34.97;;;8.10;99.90;;;;;;10382137;28;20263;-78
2023/12/13 21:42:14;;;;;;;67.33;36.53;;;7.80;99.90;;;;;;10394937;28;20286;-78
2023/12/13 21:47:18;;;;;;;67.87;33.60;;;8.00;99.90;;;;;;10407239;28;20270;-78
2023/12/13 21:52:21;;;;;;;72.83;39.50;;;7.90;99.90;;;;;;10396020;28;20274;-79
2023/12/13 21:57:24;;;;;;;64.57;33.70;;;8.20;99.90;;;;;;10368026;28;20264;-78
2023/12/13 22:02:26;;;;;;;65.60;33.53;;;8.20;99.90;;;;;;10368429;28;20293;-79
2023/12/13 22:07:29;;;;;;;71.67;36.83;;;8.30;99.90;;;;;;10399566;28;20331;-79
2023/12/13 22:12:31;;;;;;;63.87;34.63;;;8.20;99.90;;;;;;10369496;28;20274;-79
2023/12/13 22:17:36;;;;;;;62.37;33.33;;;8.00;99.90;;;;;;10339664;28;20314;-79
2023/12/13 22:22:41;;;;;;;65.33;34.57;;;7.90;99.90;;;;;;10345600;28;20231;-79
2023/12/13 22:27:43;;;;;;;71.00;35.17;;;7.70;99.90;;;;;;10341557;28;20305;-78
2023/12/13 22:32:46;;;;;;;69.47;37.27;;;7.30;99.90;;;;;;10349622;28;20232;-79
2023/12/13 22:37:49;;;;;;;65.43;34.67;;;7.20;99.90;;;;;;10343500;28;20302;-79
2023/12/13 22:42:51;;;;;;;68.10;32.70;;;7.70;99.90;;;;;;10359975;28;20287;-79
2023/12/13 22:47:56;;;;;;;67.83;35.80;;;7.80;99.90;;;;;;10363258;28;20263;-79
2023/12/13 22:52:59;;;;;;;61.70;31.80;;;8.10;99.90;;;;;;10360957;28;20235;-79
2023/12/13 22:58:02;;;;;;;71.57;34.30;;;7.90;99.90;;;;;;10367971;28;20252;-78
2023/12/13 23:03:04;;;;;;;65.90;35.30;;;7.90;99.90;;;;;;10365313;28;20228;-78
2023/12/13 23:08:07;;;;;;;68.83;35.77;;;8.30;99.90;;;;;;10369590;28;20757;-78
2023/12/13 23:13:10;;;;;;;62.53;36.47;;;8.50;99.90;;;;;;10368193;28;20299;-79
2023/12/13 23:18:12;;;;;;;80.73;38.37;;;8.00;99.90;;;;;;10370742;28;20254;-79
2023/12/13 23:23:17;;;;;;;71.13;36.27;;;6.90;99.90;;;;;;10364274;28;20226;-79
2023/12/13 23:28:20;;;;;;;193.53;103.10;;;5.90;99.90;;;;;;10364812;28;20230;-78
2023/12/13 23:33:23;;;;;;;226.40;118.47;;;6.30;99.90;;;;;;10360669;28;20640;-78
2023/12/13 23:38:25;;;;;;;109.60;56.77;;;6.90;99.90;;;;;;10366978;28;20260;-79
2023/12/13 23:43:28;;;;;;;384.10;210.53;;;7.10;99.90;;;;;;10363498;28;20224;-79
2023/12/13 23:48:33;;;;;;;323.13;172.10;;;7.30;99.90;;;;;;10364642;28;20244;-79
2023/12/13 23:53:36;;;;;;;192.73;109.83;;;7.30;99.90;;;;;;10364432;28;20231;-79
2023/12/13 23:58:38;;;;;;;271.80;143.90;;;7.60;99.90;;;;;;10366296;28;20787;-79
